Time,TemperatureF,DewpointF,PressureIn,WindDirection,WindDirectionDegrees,WindSpeedMPH,WindSpeedGustMPH,Humidity,HourlyPrecipIn,Conditions,Clouds,dailyrainin,SoftwareType,DateUTC
2013-04-16 00:00:00,26.0,23.0,-100.00,North,-999,-999.0,-999.0,89,0.00,,,-99.99,,2013-04-16 07:00:00,
2013-04-16 01:00:00,26.0,23.0,-100.00,North,-999,-999.0,-999.0,90,0.00,,,-99.99,,2013-04-16 08:00:00,
2013-04-16 02:00:00,25.0,22.0,-100.00,North,-999,-999.0,-999.0,88,0.00,,,-99.99,,2013-04-16 09:00:00,
2013-04-16 03:00:00,24.0,21.0,-100.00,North,-999,-999.0,-999.0,89,0.00,,,-99.99,,2013-04-16 10:00:00,
2013-04-16 05:00:00,27.0,25.0,-100.00,North,-999,-999.0,-999.0,91,0.00,,,-99.99,,2013-04-16 12:00:00,
2013-04-16 06:00:00,27.0,25.0,-100.00,North,-999,-999.0,-999.0,91,0.00,,,-99.99,,2013-04-16 13:00:00,
2013-04-16 07:00:00,27.0,25.0,-100.00,North,-999,-999.0,-999.0,91,0.00,,,-99.99,,2013-04-16 14:00:00,
2013-04-16 08:00:00,28.0,25.0,-100.00,North,-999,-999.0,-999.0,88,0.00,,,-99.99,,2013-04-16 15:00:00,
2013-04-16 09:00:00,28.0,24.0,-100.00,North,-999,-999.0,-999.0,83,0.00,,,-99.99,,2013-04-16 16:00:00,
2013-04-16 10:00:00,30.0,25.0,-100.00,North,-999,-999.0,-999.0,82,0.00,,,-99.99,,2013-04-16 17:00:00,
2013-04-16 12:00:00,35.0,26.0,-100.00,North,-999,-999.0,-999.0,68,0.00,,,-99.99,,2013-04-16 19:00:00,
2013-04-16 13:00:00,36.0,27.0,-100.00,North,-999,-999.0,-999.0,69,0.00,,,-99.99,,2013-04-16 20:00:00,
2013-04-16 14:00:00,38.0,22.0,-100.00,North,-999,-999.0,-999.0,52,0.00,,,-99.99,,2013-04-16 21:00:00,
2013-04-16 15:00:00,37.0,26.0,-100.00,North,-999,-999.0,-999.0,64,0.00,,,-99.99,,2013-04-16 22:00:00,
2013-04-16 16:00:00,38.0,20.0,-100.00,North,-999,-999.0,-999.0,48,0.00,,,-99.99,,2013-04-16 23:00:00,
2013-04-16 17:00:00,36.0,26.0,-100.00,North,-999,-999.0,-999.0,67,0.00,,,-99.99,,2013-04-17 00:00:00,
2013-04-16 18:00:00,33.0,27.0,-100.00,North,-999,-999.0,-999.0,78,0.00,,,-99.99,,2013-04-17 01:00:00,
2013-04-16 19:00:00,33.0,27.0,-100.00,North,-999,-999.0,-999.0,77,0.00,,,-99.99,,2013-04-17 02:00:00,
2013-04-16 21:00:00,31.0,26.0,-100.00,North,-999,-999.0,-999.0,83,0.00,,,-99.99,,2013-04-17 04:00:00,
2013-04-16 22:00:00,29.0,25.0,-100.00,North,-999,-999.0,-999.0,83,0.00,,,-99.99,,2013-04-17 05:00:00,
2013-04-16 23:00:00,28.0,25.0,-100.00,North,-999,-999.0,-999.0,87,0.00,,,-99.99,,2013-04-17 06:00:00,